createdAt,value
2018-07-15T00:01:17.811Z,18.60
2018-07-15T00:03:22.223Z,18.50
2018-07-15T00:05:26.776Z,18.50
2018-07-15T00:07:31.332Z,18.50
2018-07-15T00:09:35.802Z,18.50
2018-07-15T00:11:40.317Z,18.40
2018-07-15T00:13:44.779Z,18.40
2018-07-15T00:15:49.250Z,18.40
2018-07-15T00:17:53.654Z,18.40
2018-07-15T00:19:58.113Z,18.30
2018-07-15T00:22:02.614Z,18.30
2018-07-15T00:24:07.137Z,18.20
2018-07-15T00:26:11.606Z,18.20
2018-07-15T00:28:16.059Z,18.20
2018-07-15T00:30:22.505Z,18.10
2018-07-15T00:32:27.166Z,18.10
2018-07-15T00:34:32.083Z,18.00
2018-07-15T00:36:36.620Z,18.00
2018-07-15T00:38:41.106Z,18.00
2018-07-15T00:40:45.546Z,17.90
2018-07-15T00:42:50.060Z,17.90
2018-07-15T00:44:54.622Z,17.90
2018-07-15T00:46:59.088Z,17.80
2018-07-15T00:49:03.510Z,17.90
2018-07-15T00:51:08.043Z,17.80
2018-07-15T00:53:12.557Z,17.80
2018-07-15T00:55:17.076Z,17.80
2018-07-15T00:57:21.534Z,17.70
2018-07-15T00:59:26.024Z,17.70
2018-07-15T01:01:34.597Z,17.70
2018-07-15T01:03:41.282Z,17.70
2018-07-15T01:05:48.137Z,17.60
2018-07-15T01:07:56.310Z,17.60
2018-07-15T01:10:03.844Z,17.60
2018-07-15T01:12:08.455Z,17.50
2018-07-15T01:14:16.927Z,17.50
2018-07-15T01:16:23.841Z,17.50
2018-07-15T01:18:29.459Z,17.50
2018-07-15T01:20:35.762Z,17.40
2018-07-15T01:22:43.538Z,17.40
2018-07-15T01:24:49.330Z,17.40
2018-07-15T01:26:57.322Z,17.30
2018-07-15T01:29:05.169Z,17.30
2018-07-15T01:31:13.502Z,17.30
2018-07-15T01:33:20.146Z,17.30
2018-07-15T01:35:28.865Z,17.20
2018-07-15T01:37:36.565Z,17.20
2018-07-15T01:39:42.659Z,17.20
2018-07-15T01:41:51.328Z,17.10
2018-07-15T01:43:59.099Z,17.10
2018-07-15T01:46:05.503Z,17.10
2018-07-15T01:48:12.450Z,17.00
2018-07-15T01:50:20.963Z,17.00
2018-07-15T01:52:28.267Z,17.00
2018-07-15T01:54:34.167Z,16.90
2018-07-15T01:56:41.655Z,16.90
2018-07-15T01:58:48.239Z,16.80
2018-07-15T02:03:00.437Z,16.80
2018-07-15T02:05:05.574Z,16.80
2018-07-15T02:07:10.039Z,16.80
2018-07-15T02:09:15.179Z,16.70
2018-07-15T02:11:20.122Z,16.70
2018-07-15T02:13:24.558Z,16.60
2018-07-15T02:15:29.035Z,16.60
2018-07-15T02:17:33.521Z,16.60
2018-07-15T02:19:38.049Z,16.60
2018-07-15T02:21:42.514Z,16.50
2018-07-15T02:23:46.970Z,16.50
2018-07-15T02:25:51.444Z,16.50
2018-07-15T02:27:55.932Z,16.50
2018-07-15T02:30:00.528Z,16.50
2018-07-15T02:34:10.415Z,16.40
2018-07-15T02:36:15.500Z,16.40
2018-07-15T02:38:19.946Z,16.40
2018-07-15T02:40:24.483Z,16.30
2018-07-15T02:42:28.911Z,16.30
2018-07-15T02:44:33.362Z,16.30
2018-07-15T02:46:37.855Z,16.20
2018-07-15T02:48:42.292Z,16.20
2018-07-15T02:50:46.766Z,16.20
2018-07-15T02:52:51.226Z,16.20
2018-07-15T02:56:59.989Z,16.10
2018-07-15T02:59:04.446Z,16.10
2018-07-15T03:01:09.224Z,16.00
2018-07-15T03:03:13.778Z,16.00
2018-07-15T03:05:18.336Z,16.00
2018-07-15T03:07:22.839Z,16.00
2018-07-15T03:09:27.270Z,15.90
2018-07-15T03:11:31.734Z,15.90
2018-07-15T03:13:37.659Z,15.90
2018-07-15T03:15:42.137Z,15.90
2018-07-15T03:17:46.565Z,15.90
2018-07-15T03:19:51.006Z,15.90
2018-07-15T03:24:00.419Z,15.80
2018-07-15T03:26:04.978Z,15.80
2018-07-15T03:28:09.458Z,15.70
2018-07-15T03:30:13.926Z,15.80
2018-07-15T03:32:18.410Z,15.80
2018-07-15T03:34:22.845Z,15.70
2018-07-15T03:36:27.357Z,15.70
2018-07-15T03:38:31.878Z,15.70
2018-07-15T03:40:36.349Z,15.70
2018-07-15T03:42:40.808Z,15.60
2018-07-15T03:44:45.341Z,15.60
2018-07-15T03:46:49.814Z,15.60
2018-07-15T03:48:54.276Z,15.60
2018-07-15T03:50:59.106Z,15.60
2018-07-15T03:53:03.560Z,15.50
2018-07-15T03:55:08.026Z,15.60
2018-07-15T03:57:12.530Z,15.50
2018-07-15T03:59:17.020Z,15.50
2018-07-15T04:01:21.503Z,15.50
2018-07-15T04:03:27.920Z,15.50
2018-07-15T04:05:34.572Z,15.40
2018-07-15T04:07:42.438Z,15.40
2018-07-15T04:09:50.681Z,15.40
2018-07-15T04:11:58.204Z,15.40
2018-07-15T04:14:05.808Z,15.40
2018-07-15T04:16:11.529Z,15.40
2018-07-15T04:20:26.087Z,15.30
2018-07-15T04:22:31.830Z,15.30
2018-07-15T04:24:40.254Z,15.30
2018-07-15T04:26:47.944Z,15.30
2018-07-15T04:28:55.357Z,15.30
2018-07-15T04:31:01.164Z,15.30
2018-07-15T04:33:07.159Z,15.30
2018-07-15T04:35:15.390Z,15.30
2018-07-15T04:37:22.843Z,15.30
2018-07-15T04:39:27.313Z,15.30
2018-07-15T04:41:31.781Z,15.30
2018-07-15T04:45:41.402Z,15.30
2018-07-15T04:47:45.863Z,15.30
2018-07-15T04:49:50.290Z,15.30
2018-07-15T04:51:54.790Z,15.30
2018-07-15T04:53:59.238Z,15.30
2018-07-15T04:56:03.693Z,15.30
2018-07-15T04:58:08.280Z,15.30
2018-07-15T05:00:12.737Z,15.30
2018-07-15T05:06:25.759Z,15.40
2018-07-15T05:08:30.192Z,15.40
2018-07-15T05:10:34.618Z,15.40
2018-07-15T05:12:39.090Z,15.40
2018-07-15T05:14:44.285Z,15.50
2018-07-15T05:16:48.751Z,15.50
2018-07-15T05:18:53.193Z,15.50
2018-07-15T05:20:57.646Z,15.60
2018-07-15T05:23:02.130Z,15.60
2018-07-15T05:25:06.653Z,15.70
2018-07-15T05:27:11.111Z,15.70
2018-07-15T05:29:15.585Z,15.80
2018-07-15T05:31:20.033Z,15.80
2018-07-15T05:33:24.486Z,15.90
2018-07-15T05:35:28.954Z,16.00
2018-07-15T05:37:33.454Z,16.10
2018-07-15T05:39:37.938Z,16.20
2018-07-15T05:41:42.456Z,16.20
2018-07-15T05:45:51.259Z,16.40
2018-07-15T05:47:55.706Z,16.40
2018-07-15T05:50:00.134Z,16.50
2018-07-15T05:52:04.648Z,16.60
2018-07-15T05:54:09.180Z,16.70
2018-07-15T05:58:18.675Z,16.80
2018-07-15T06:02:27.374Z,17.00
2018-07-15T06:04:31.806Z,17.10
2018-07-15T06:06:36.408Z,17.20
2018-07-15T06:08:40.894Z,17.30
2018-07-15T06:10:45.488Z,17.30
2018-07-15T06:12:49.949Z,17.40
2018-07-15T06:14:54.378Z,17.50
2018-07-15T06:16:58.861Z,17.60
2018-07-15T06:19:03.336Z,17.60
2018-07-15T06:21:08.347Z,17.80
2018-07-15T06:23:12.806Z,17.80
2018-07-15T06:27:23.142Z,18.00
2018-07-15T06:31:31.906Z,18.20
2018-07-15T06:33:36.474Z,18.30
2018-07-15T06:35:41.011Z,18.30
2018-07-15T06:37:45.541Z,18.50
2018-07-15T06:41:54.110Z,18.60
2018-07-15T06:43:58.831Z,18.70
2018-07-15T06:48:07.414Z,19.00
2018-07-15T06:50:11.880Z,19.00
2018-07-15T06:52:16.568Z,19.10
2018-07-15T06:54:21.023Z,19.20
2018-07-15T06:58:29.705Z,19.50
2018-07-15T07:00:34.159Z,19.60
2018-07-15T07:02:39.166Z,19.70
2018-07-15T07:04:43.706Z,19.80
2018-07-15T07:06:48.248Z,19.90
2018-07-15T07:08:52.886Z,20.00
2018-07-15T07:10:57.351Z,20.10
2018-07-15T07:13:01.856Z,20.20
2018-07-15T07:15:06.363Z,20.30
2018-07-15T07:17:10.895Z,20.50
2018-07-15T07:19:17.386Z,20.50
2018-07-15T07:23:25.998Z,20.80
2018-07-15T07:25:31.479Z,20.90
2018-07-15T07:27:35.946Z,21.00
2018-07-15T07:29:40.435Z,21.10
2018-07-15T07:31:44.890Z,21.20
2018-07-15T07:33:49.510Z,21.40
2018-07-15T07:35:54.794Z,21.50
2018-07-15T07:37:59.670Z,21.60
2018-07-15T07:40:04.191Z,21.70
2018-07-15T07:42:09.495Z,21.80
2018-07-15T07:44:13.963Z,22.00
2018-07-15T07:46:19.787Z,22.10
2018-07-15T07:48:24.272Z,22.30
2018-07-15T07:50:29.325Z,22.40
2018-07-15T07:52:33.870Z,22.60
2018-07-15T07:54:39.727Z,22.70
2018-07-15T07:58:51.239Z,23.00
2018-07-15T08:00:58.053Z,23.10
2018-07-15T08:03:04.775Z,23.30
2018-07-15T08:05:19.538Z,23.40
2018-07-15T08:07:25.786Z,23.50
2018-07-15T08:09:30.237Z,23.70
2018-07-15T08:11:34.907Z,23.80
2018-07-15T08:13:40.131Z,24.00
2018-07-15T08:15:44.578Z,24.10
2018-07-15T08:19:53.387Z,24.40
2018-07-15T08:21:57.830Z,24.50
2018-07-15T08:24:03.299Z,24.60
2018-07-15T08:26:07.982Z,24.70
2018-07-15T08:28:12.732Z,24.90
2018-07-15T08:30:34.273Z,24.90
2018-07-15T08:32:38.694Z,25.10
2018-07-15T08:34:43.579Z,25.20
2018-07-15T08:36:48.003Z,25.30
2018-07-15T08:38:52.430Z,25.40
2018-07-15T08:40:56.890Z,25.50
2018-07-15T08:43:01.370Z,25.60
2018-07-15T08:45:05.880Z,25.70
2018-07-15T08:47:11.406Z,25.80
2018-07-15T08:49:15.938Z,25.80
2018-07-15T08:51:20.573Z,25.90
2018-07-15T08:53:25.118Z,26.00
2018-07-15T08:57:34.011Z,26.20
2018-07-15T08:59:38.457Z,26.30
2018-07-15T09:01:42.937Z,26.40
2018-07-15T09:03:47.354Z,26.50
2018-07-15T09:05:51.853Z,26.50
2018-07-15T09:07:56.285Z,26.60
2018-07-15T09:10:00.918Z,26.70
2018-07-15T09:18:19.251Z,27.10
2018-07-15T09:20:24.146Z,27.10
2018-07-15T09:22:28.689Z,27.20
2018-07-15T09:24:33.719Z,27.30
2018-07-15T09:28:42.542Z,27.40
2018-07-15T09:30:46.955Z,27.40
2018-07-15T09:32:51.690Z,27.50
2018-07-15T09:34:56.094Z,27.60
2018-07-15T09:37:01.373Z,27.60
2018-07-15T09:39:07.682Z,27.70
2018-07-15T09:41:12.226Z,27.70
2018-07-15T09:43:16.761Z,27.80
2018-07-15T09:45:21.318Z,27.80
2018-07-15T09:47:25.749Z,27.80
2018-07-15T09:49:30.628Z,27.90
2018-07-15T09:51:35.122Z,28.00
2018-07-15T09:53:39.591Z,28.00
2018-07-15T09:55:44.038Z,28.10
2018-07-15T09:57:48.480Z,28.10
2018-07-15T09:59:55.105Z,28.20
2018-07-15T10:01:59.631Z,28.20
2018-07-15T10:04:04.338Z,28.30
2018-07-15T10:06:08.948Z,28.40
2018-07-15T10:08:13.440Z,28.40
2018-07-15T10:10:17.964Z,28.40
2018-07-15T10:12:23.015Z,28.50
2018-07-15T10:14:28.805Z,28.50
2018-07-15T10:16:34.502Z,28.60
2018-07-15T10:18:40.487Z,28.60
2018-07-15T10:20:47.459Z,28.70
2018-07-15T10:22:53.767Z,28.70
2018-07-15T10:24:58.210Z,28.80
2018-07-15T10:27:04.894Z,28.90
2018-07-15T10:29:09.363Z,28.90
2018-07-15T10:31:13.792Z,29.00
2018-07-15T10:33:18.256Z,29.00
2018-07-15T10:35:22.726Z,29.10
2018-07-15T10:37:27.172Z,29.10
2018-07-15T10:39:31.641Z,29.20
2018-07-15T10:41:36.228Z,29.30
2018-07-15T10:43:40.676Z,29.30
2018-07-15T10:45:45.118Z,29.40
2018-07-15T10:47:49.535Z,29.40
2018-07-15T10:49:54.014Z,29.50
2018-07-15T10:51:58.466Z,29.50
2018-07-15T10:54:02.915Z,29.60
2018-07-15T10:56:07.395Z,29.70
2018-07-15T10:58:11.911Z,29.70
2018-07-15T11:02:20.524Z,29.80
2018-07-15T11:04:24.947Z,29.90
2018-07-15T11:06:29.544Z,29.90
2018-07-15T11:08:33.930Z,30.00
2018-07-15T11:10:39.293Z,30.10
2018-07-15T11:12:43.693Z,30.10
2018-07-15T11:14:48.174Z,30.10
2018-07-15T11:16:53.500Z,30.20
2018-07-15T11:18:58.719Z,30.20
2018-07-15T11:21:03.191Z,30.30
2018-07-15T11:23:07.617Z,30.30
2018-07-15T11:27:16.782Z,30.40
2018-07-15T11:29:21.217Z,30.40
2018-07-15T11:31:25.754Z,30.50
2018-07-15T11:33:30.146Z,30.60
2018-07-15T11:35:34.644Z,30.60
2018-07-15T11:37:39.105Z,30.70
2018-07-15T11:39:44.969Z,30.70
2018-07-15T11:41:49.616Z,30.80
2018-07-15T11:43:54.050Z,30.80
2018-07-15T11:45:58.492Z,30.80
2018-07-15T11:48:03.157Z,30.90
2018-07-15T11:50:07.647Z,30.90
2018-07-15T11:52:12.086Z,31.00
2018-07-15T11:56:20.978Z,31.10
2018-07-15T11:58:25.505Z,31.10
2018-07-15T12:00:29.991Z,31.20
2018-07-15T12:02:34.534Z,31.30
2018-07-15T12:04:39.320Z,31.40
2018-07-15T12:08:48.400Z,31.50
2018-07-15T12:10:52.912Z,31.50
2018-07-15T12:12:59.270Z,31.60
2018-07-15T12:15:04.043Z,31.70
2018-07-15T12:17:08.688Z,31.70
2018-07-15T12:19:13.170Z,31.80
2018-07-15T12:21:17.718Z,31.80
2018-07-15T12:23:23.209Z,31.80
2018-07-15T12:25:27.898Z,31.90
2018-07-15T12:27:32.446Z,31.90
2018-07-15T12:29:37.098Z,31.90
2018-07-15T12:31:41.836Z,32.00
2018-07-15T12:33:46.402Z,32.00
2018-07-15T12:35:51.404Z,32.00
2018-07-15T12:37:56.536Z,32.10
2018-07-15T12:40:00.994Z,32.20
2018-07-15T12:42:06.191Z,32.20
2018-07-15T12:44:10.614Z,32.30
2018-07-15T12:46:15.923Z,32.30
2018-07-15T12:48:20.411Z,32.30
2018-07-15T12:50:25.206Z,32.40
2018-07-15T12:52:29.679Z,32.40
2018-07-15T12:54:34.154Z,32.50
2018-07-15T12:56:38.934Z,32.50
2018-07-15T12:58:44.318Z,32.60
2018-07-15T13:00:49.255Z,32.60
2018-07-15T13:02:53.798Z,32.70
2018-07-15T13:04:58.331Z,32.70
2018-07-15T13:07:03.230Z,32.70
2018-07-15T13:09:08.939Z,32.70
2018-07-15T13:11:13.512Z,32.80
2018-07-15T13:13:18.063Z,32.80
2018-07-15T13:15:22.582Z,32.90
2018-07-15T13:17:27.351Z,32.90
2018-07-15T13:19:31.909Z,33.00
2018-07-15T13:21:36.540Z,33.00
2018-07-15T13:23:41.200Z,33.00
2018-07-15T13:25:45.591Z,33.00
2018-07-15T13:27:50.391Z,33.10
2018-07-15T13:29:55.293Z,33.10
2018-07-15T13:32:00.572Z,33.10
2018-07-15T13:34:05.043Z,33.20
2018-07-15T13:36:09.766Z,33.20
2018-07-15T13:38:14.799Z,33.20
2018-07-15T13:40:19.402Z,33.20
2018-07-15T13:42:24.995Z,33.30
2018-07-15T13:44:29.418Z,33.30
2018-07-15T13:46:33.827Z,33.30
2018-07-15T13:48:38.639Z,33.30
2018-07-15T13:50:43.103Z,33.30
2018-07-15T13:52:47.548Z,33.40
2018-07-15T13:54:51.959Z,33.40
2018-07-15T13:56:56.585Z,33.40
2018-07-15T13:59:01.346Z,33.50
2018-07-15T14:01:05.834Z,33.40
2018-07-15T14:03:10.294Z,33.50
2018-07-15T14:05:14.859Z,33.50
2018-07-15T14:07:19.311Z,33.50
2018-07-15T14:09:24.068Z,33.50
2018-07-15T14:13:33.095Z,33.50
2018-07-15T14:15:37.783Z,33.50
2018-07-15T14:17:42.346Z,33.60
2018-07-15T14:19:46.795Z,33.60
2018-07-15T14:21:51.231Z,33.60
2018-07-15T14:23:55.712Z,33.60
2018-07-15T14:26:00.143Z,33.70
2018-07-15T14:28:05.883Z,33.70
2018-07-15T14:30:10.331Z,33.70
2018-07-15T14:32:14.843Z,33.70
2018-07-15T14:34:19.370Z,33.80
2018-07-15T14:36:23.817Z,33.80
2018-07-15T14:38:28.433Z,33.80
2018-07-15T14:40:32.982Z,33.90
2018-07-15T14:44:41.545Z,33.90
2018-07-15T14:46:46.056Z,33.90
2018-07-15T14:48:50.493Z,33.90
2018-07-15T14:50:54.909Z,33.90
2018-07-15T14:52:59.474Z,33.90
2018-07-15T14:55:04.016Z,33.90
2018-07-15T14:57:08.559Z,33.90
2018-07-15T15:01:17.538Z,34.00
2018-07-15T15:03:22.125Z,34.00
2018-07-15T15:05:26.647Z,34.00
2018-07-15T15:07:31.187Z,34.10
2018-07-15T15:09:35.619Z,34.10
2018-07-15T15:11:40.200Z,34.10
2018-07-15T15:13:45.778Z,34.10
2018-07-15T15:15:50.222Z,34.20
2018-07-15T15:19:59.394Z,34.10
2018-07-15T15:22:03.841Z,34.20
2018-07-15T15:24:08.622Z,34.20
2018-07-15T15:26:13.133Z,34.20
2018-07-15T15:28:17.610Z,34.20
2018-07-15T15:30:22.052Z,34.20
2018-07-15T15:32:26.514Z,34.30
2018-07-15T15:34:30.982Z,34.30
2018-07-15T15:36:35.439Z,34.30
2018-07-15T15:40:44.204Z,34.30
2018-07-15T15:42:48.709Z,34.30
2018-07-15T15:44:53.303Z,34.40
2018-07-15T15:46:57.639Z,34.40
2018-07-15T15:49:02.079Z,34.40
2018-07-15T15:51:06.612Z,34.40
2018-07-15T15:53:11.107Z,34.40
2018-07-15T15:55:15.570Z,34.40
2018-07-15T15:57:20.002Z,34.30
2018-07-15T15:59:24.443Z,34.30
2018-07-15T16:03:40.811Z,34.30
2018-07-15T16:05:45.339Z,34.30
2018-07-15T16:07:50.726Z,34.20
2018-07-15T16:09:55.267Z,34.20
2018-07-15T16:11:59.843Z,34.30
2018-07-15T16:14:05.039Z,34.30
2018-07-15T16:16:09.639Z,34.30
2018-07-15T16:22:26.146Z,34.30
2018-07-15T16:24:30.966Z,34.20
2018-07-15T16:26:35.575Z,34.20
2018-07-15T16:28:39.996Z,34.10
2018-07-15T16:30:44.512Z,34.00
2018-07-15T16:32:50.191Z,33.80
2018-07-15T16:34:55.887Z,33.70
2018-07-15T16:37:02.061Z,33.60
2018-07-15T16:39:09.132Z,33.50
2018-07-15T16:41:15.140Z,33.30
2018-07-15T16:43:22.282Z,33.10
2018-07-15T16:45:27.534Z,33.00
2018-07-15T16:47:32.155Z,32.70
2018-07-15T16:49:36.641Z,32.60
2018-07-15T16:51:41.142Z,32.40
2018-07-15T16:53:46.167Z,32.30
2018-07-15T16:55:50.721Z,32.10
2018-07-15T16:57:55.193Z,32.00
2018-07-15T16:59:59.711Z,32.00
2018-07-15T17:04:08.538Z,31.80
2018-07-15T17:06:13.094Z,31.60
2018-07-15T17:08:17.498Z,31.50
2018-07-15T17:10:21.967Z,31.40
2018-07-15T17:12:27.779Z,31.30
2018-07-15T17:14:32.444Z,31.20
2018-07-15T17:16:36.954Z,31.10
2018-07-15T17:22:50.019Z,30.80
2018-07-15T17:24:54.532Z,30.70
2018-07-15T17:26:58.958Z,30.60
2018-07-15T17:29:03.406Z,30.50
2018-07-15T17:31:08.195Z,30.40
2018-07-15T17:33:12.593Z,30.40
2018-07-15T17:35:17.022Z,30.30
2018-07-15T17:37:21.484Z,30.20
2018-07-15T17:39:26.186Z,30.10
2018-07-15T17:41:30.914Z,30.00
2018-07-15T17:43:35.359Z,29.80
2018-07-15T17:45:39.836Z,29.80
2018-07-15T17:47:44.370Z,29.70
2018-07-15T17:49:48.789Z,29.70
2018-07-15T17:51:53.223Z,29.60
2018-07-15T17:53:57.607Z,29.50
2018-07-15T17:56:02.115Z,29.50
2018-07-15T17:58:06.650Z,29.40
2018-07-15T18:00:11.146Z,29.30
2018-07-15T18:02:15.616Z,29.30
2018-07-15T18:04:20.071Z,29.20
2018-07-15T18:06:24.602Z,29.20
2018-07-15T18:08:29.055Z,29.10
2018-07-15T18:10:33.533Z,29.10
2018-07-15T18:14:42.350Z,29.00
2018-07-15T18:16:46.783Z,28.90
2018-07-15T18:18:51.208Z,28.90
2018-07-15T18:20:55.648Z,28.80
2018-07-15T18:23:00.248Z,28.80
2018-07-15T18:25:04.843Z,28.70
2018-07-15T18:27:09.338Z,28.70
2018-07-15T18:29:14.354Z,28.70
2018-07-15T18:31:18.791Z,28.60
2018-07-15T18:33:23.778Z,28.60
2018-07-15T18:35:28.935Z,28.60
2018-07-15T18:37:33.371Z,28.50
2018-07-15T18:39:37.874Z,28.50
2018-07-15T18:41:42.362Z,28.40
2018-07-15T18:45:51.358Z,28.40
2018-07-15T18:47:55.849Z,28.20
2018-07-15T18:50:00.343Z,28.20
2018-07-15T18:52:04.804Z,28.10
2018-07-15T18:54:09.303Z,28.00
2018-07-15T18:56:13.787Z,27.90
2018-07-15T18:58:18.465Z,27.80
2018-07-15T19:02:27.242Z,27.60
2018-07-15T19:04:31.673Z,27.50
2018-07-15T19:06:36.179Z,27.40
2018-07-15T19:08:42.770Z,27.30
2018-07-15T19:10:47.726Z,27.20
2018-07-15T19:12:52.146Z,27.10
2018-07-15T19:14:56.547Z,27.00
2018-07-15T19:17:01.179Z,26.90
2018-07-15T19:19:05.906Z,26.70
2018-07-15T19:23:15.522Z,26.50
2018-07-15T19:25:21.236Z,26.40
2018-07-15T19:27:27.319Z,26.20
2018-07-15T19:29:32.063Z,26.20
2018-07-15T19:31:36.939Z,26.00
2018-07-15T19:33:43.327Z,25.90
2018-07-15T19:35:48.122Z,25.70
2018-07-15T19:37:52.897Z,25.70
2018-07-15T19:39:58.327Z,25.60
2018-07-15T19:42:03.029Z,25.50
2018-07-15T19:44:07.925Z,25.40
2018-07-15T19:48:17.987Z,25.20
2018-07-15T19:50:23.670Z,25.10
2018-07-15T19:52:28.741Z,25.00
2018-07-15T19:54:33.183Z,24.90
2018-07-15T19:56:37.659Z,24.80
2018-07-15T19:58:42.135Z,24.70
2018-07-15T20:00:46.566Z,24.70
2018-07-15T20:02:50.971Z,24.50
2018-07-15T20:04:55.466Z,24.50
2018-07-15T20:06:59.911Z,24.40
2018-07-15T20:09:04.954Z,24.30
2018-07-15T20:11:10.294Z,24.20
2018-07-15T20:13:14.770Z,24.20
2018-07-15T20:21:31.624Z,23.90
2018-07-15T20:23:36.082Z,23.80
2018-07-15T20:25:40.559Z,23.80
2018-07-15T20:27:45.076Z,23.70
2018-07-15T20:29:51.102Z,23.60
2018-07-15T20:31:57.446Z,23.60
2018-07-15T20:34:03.684Z,23.50
2018-07-15T20:36:09.931Z,23.40
2018-07-15T20:38:15.654Z,23.40
2018-07-15T20:42:27.605Z,23.20
2018-07-15T20:44:32.927Z,23.20
2018-07-15T20:46:38.466Z,23.10
2018-07-15T20:48:44.980Z,23.00
2018-07-15T20:50:49.479Z,23.00
2018-07-15T20:54:58.735Z,22.80
2018-07-15T20:57:03.425Z,22.80
2018-07-15T20:59:07.830Z,22.70
2018-07-15T21:01:14.073Z,22.60
2018-07-15T21:03:19.091Z,22.60
2018-07-15T21:05:23.623Z,22.50
2018-07-15T21:09:32.725Z,22.40
2018-07-15T21:11:41.272Z,22.30
2018-07-15T21:13:46.172Z,22.30
2018-07-15T21:15:51.123Z,22.20
2018-07-15T21:17:55.640Z,22.10
2018-07-15T21:20:00.122Z,22.10
2018-07-15T21:22:05.057Z,22.00
2018-07-15T21:24:09.478Z,21.90
2018-07-15T21:26:14.207Z,21.80
2018-07-15T21:28:18.859Z,21.80
2018-07-15T21:30:24.006Z,21.80
2018-07-15T21:32:29.618Z,21.70
2018-07-15T21:34:34.989Z,21.70
2018-07-15T21:36:39.671Z,21.60
2018-07-15T21:38:44.267Z,21.60
2018-07-15T21:40:48.691Z,21.50
2018-07-15T21:42:53.187Z,21.40
2018-07-15T21:47:02.171Z,21.30
2018-07-15T21:49:06.693Z,21.20
2018-07-15T21:51:11.952Z,21.20
2018-07-15T21:53:16.432Z,21.10
2018-07-15T21:55:20.934Z,21.10
2018-07-15T21:57:27.974Z,21.00
2018-07-15T21:59:32.655Z,21.00
2018-07-15T22:01:40.577Z,20.80
2018-07-15T22:03:45.430Z,20.80
2018-07-15T22:05:50.727Z,20.80
2018-07-15T22:08:12.559Z,20.70
2018-07-15T22:10:54.515Z,20.70
2018-07-15T22:12:58.992Z,20.60
2018-07-15T22:15:03.463Z,20.50
2018-07-15T22:17:08.328Z,20.40
2018-07-15T22:19:13.729Z,20.40
2018-07-15T22:21:18.855Z,20.30
2018-07-15T22:23:23.418Z,20.30
2018-07-15T22:25:27.869Z,20.30
2018-07-15T22:27:32.390Z,20.20
2018-07-15T22:29:36.866Z,20.10
2018-07-15T22:31:41.329Z,20.10
2018-07-15T22:33:45.790Z,20.10
2018-07-15T22:37:54.353Z,19.90
2018-07-15T22:39:58.801Z,19.90
2018-07-15T22:44:07.391Z,19.80
2018-07-15T22:46:12.409Z,19.80
2018-07-15T22:48:16.851Z,19.70
2018-07-15T22:50:21.410Z,19.70
2018-07-15T22:52:26.210Z,19.60
2018-07-15T22:54:30.738Z,19.60
2018-07-15T22:56:35.435Z,19.50
2018-07-15T23:00:45.918Z,19.50
2018-07-15T23:02:50.327Z,19.40
2018-07-15T23:06:09.612Z,19.40
2018-07-15T23:08:16.760Z,19.30
2018-07-15T23:10:21.239Z,19.20
2018-07-15T23:14:29.948Z,19.10
2018-07-15T23:16:37.291Z,19.00
2018-07-15T23:18:45.348Z,18.90
2018-07-15T23:20:51.213Z,18.90
2018-07-15T23:22:56.268Z,18.90
2018-07-15T23:25:01.444Z,18.80
2018-07-15T23:27:05.891Z,18.80
2018-07-15T23:29:10.837Z,18.80
2018-07-15T23:31:15.334Z,18.70
2018-07-15T23:33:19.777Z,18.70
2018-07-15T23:35:24.234Z,18.60
2018-07-15T23:39:33.023Z,18.60
2018-07-15T23:41:37.429Z,18.50
2018-07-15T23:43:41.872Z,18.50
2018-07-15T23:45:46.366Z,18.50
2018-07-15T23:47:50.822Z,18.40
2018-07-15T23:49:55.421Z,18.40
2018-07-15T23:51:59.845Z,18.40
2018-07-15T23:54:04.334Z,18.30
2018-07-15T23:56:08.759Z,18.30
2018-07-15T23:58:13.444Z,18.30
